Mesquite, Nevada Weather observations

Data are for observation ending at time listed.
 Day   Time    Ave.   Ave.  Ave.  Vector   Max.   Stn.    Total    Solar   Ave.  
  of    of     Air    Rel.  Wind   Wind    Wind   Baro.  Precip.   Rad.    Soil  
Year   Day     Temp.  Hum.  Speed  Dir.    Gust   Pres.                    Temp. 
2017   (PST)    F      %     mph   deg.    mph     mb.     in.     W/m2     F   
------------------------------------------------------------------------------
  35   21:10   49.5    70    2.1    84      3.4   952.4    0.00       0    60.5
  35   21:20   50.0    68    2.3    95      3.4   952.5    0.00       0    60.3
  35   21:30   49.7    69    2.0    30      2.6   952.6    0.00       0    60.2
  35   21:40   49.8    68    2.1    62      2.9   952.7    0.00       0    60.0
  35   21:50   50.2    67    0.6   112      2.0   952.7    0.00       0    59.9
  35   22:00   48.6    72    1.9   105      2.7   952.7    0.00       0    59.7
  35   22:10   48.5    71    3.1    80      5.6   952.8    0.00       0    59.6
  35   22:20   47.8    71    4.6    69      6.4   952.8    0.00       0    59.5
  35   22:30   47.6    72    5.3    70      6.6   952.9    0.00       0    59.3
  35   22:40   47.2    73    4.6    74      5.7   953.0    0.00       0    59.1
  35   22:50   46.7    74    4.3    61      5.3   953.1    0.00       0    59.0
  35   23:00   47.0    74    2.3     4      3.9   953.3    0.00       0    58.9
  35   23:10   48.9    68    1.2   260      2.9   953.3    0.00       0    58.7
  35   23:20   50.0    65    1.5   129      2.1   953.3    0.00       0    58.6
  35   23:30   49.0    67    1.0    80      1.8   953.3    0.00       0    58.5
  35   23:40   47.9    70    2.2   140      4.0   953.3    0.00       0    58.3
  35   23:50   46.2    75    2.3    85      3.3   953.4    0.00       0    58.2
  36    0:00   45.6    77    3.2    93      5.3   953.3    0.00       0    58.1
  36    0:10   45.5    76    4.5    76      6.2   953.2    0.00       0    58.0
  36    0:20   45.2    77    4.7    63      6.2   953.2    0.00       0    57.9
  36    0:30   45.7    75    5.2    63      6.6   953.2    0.00       0    57.8
  36    0:40   45.1    77    5.4    68      6.6   953.2    0.00       0    57.6
  36    0:50   45.2    76    1.9    65      4.5   953.2    0.00       0    57.5
  36    1:00   45.6    76    2.1    75      3.3   953.2    0.00       0    57.4
  36    1:10   45.6    75    3.0    90      4.2   953.3    0.00       0    57.2
  36    1:20   45.3    75    2.5    83      4.5   953.3    0.00       0    57.1
  36    1:30   44.9    76    4.3    71      6.0   953.2    0.00       0    57.0
  36    1:40   44.6    76    3.9    68      5.4   953.2    0.00       0    56.9
  36    1:50   44.7    76    3.4    44      4.6   953.2    0.00       0    56.8
  36    2:00   44.5    76    3.9    50      4.9   953.1    0.00       0    56.7
  36    2:10   44.6    76    3.9    54      4.6   953.1    0.00       0    56.6
  36    2:20   44.4    76    4.4    58      5.0   953.1    0.00       0    56.5
  36    2:30   44.0    77    3.9    58      5.3   953.1    0.00       0    56.4
  36    2:40   43.9    77    3.5    56      4.2   953.1    0.00       0    56.3
  36    2:50   43.5    78    3.8    51      5.0   953.1    0.00       0    56.2
  36    3:00   43.9    77    1.7    45      4.1   952.9    0.00       0    56.0
  36    3:10   44.5    75    3.1    48      4.4   952.9    0.00       0    55.9
  36    3:20   44.4    74    2.7    54      4.0   952.8    0.00       0    55.8
  36    3:30   43.5    77    2.5    89      3.7   952.9    0.00       0    55.7
  36    3:40   42.4    82    3.7    68      3.9   952.8    0.00       0    55.6
  36    3:50   42.5    82    4.1    82      4.7   952.7    0.00       0    55.5
  36    4:00   42.0    82    3.9    81      4.9   952.6    0.00       0    55.4
  36    4:10   41.8    84    2.4    71      3.2   952.6    0.00       0    55.3
  36    4:20   41.5    84    3.7    69      4.7   952.6    0.00       0    55.2
  36    4:30   41.6    83    3.4    69      3.9   952.6    0.00       0    55.1
  36    4:40   41.9    81    2.2    60      3.2   952.4    0.00       0    55.0
  36    4:50   42.1    80    2.8    50      3.7   952.3    0.00       0    54.9
  36    5:00   42.5    79    2.0    47      2.3   952.3    0.00       0    54.8
  36    5:10   42.6    78    1.8    60      2.5   952.3    0.00       0    54.7
  36    5:20   42.9    78    1.1   112      2.1   952.3    0.00       0    54.6
  36    5:30   43.1    77    0.7   275      1.5   952.4    0.00       0    54.5
  36    5:40   42.9    78    0.2   317      1.3   952.4    0.00       0    54.4
  36    5:50   42.7    78    1.1    78      2.9   952.5    0.00       0    54.4
  36    6:00   42.8    78    2.1   122      2.9   952.5    0.00       0    54.3
  36    6:10   41.9    79    2.3    94      5.3   952.6    0.00       0    54.2
  36    6:20   40.2    84    2.4    62      4.7   952.7    0.00       0    54.1
  36    6:30   40.2    85    2.7    69      3.4   952.8    0.00       0    54.0
  36    6:40   41.0    84    1.6    77      3.0   953.0    0.00       1    53.9
  36    6:50   40.9    83    2.9    64      3.9   953.1    0.00       6    53.8
  36    7:00   40.9    82    1.8    60      2.6   953.3    0.00       9    53.7
  36    7:10   41.7    82    1.4    46      2.5   953.5    0.00      11    53.7
  36    7:20   42.8    80    1.7    82      2.7   953.6    0.00      58    53.5
  36    7:30   43.4    79    2.7    74      3.6   953.6    0.00      84    53.5
  36    7:40   44.4    76    2.9    53      3.7   953.7    0.00     105    53.4
  36    7:50   46.5    72    1.3    43      3.4   953.7    0.00     130    53.3
  36    8:00   48.3    68    1.3    47      2.6   953.8    0.00     154    53.2
  36    8:10   48.9    66    0.5   184      1.3   954.0    0.00     104    53.2
  36    8:20   50.1    65    0.4    78      1.8   954.0    0.00     188    53.2
  36    8:30   51.2    63    1.8    92      4.2   954.0    0.00     211    53.3
  36    8:40   50.1    66    2.9    97      4.4   954.0    0.00     229    53.4
  36    8:50   49.8    67    2.4    89      3.5   953.9    0.00     218    53.5
  36    9:00   50.5    67    1.8    92      3.3   953.9    0.00     286    53.7
  36    9:10   52.6    61    1.1    78      2.6   953.9    0.00     273    53.8
  36    9:20   54.3    56    0.9   111      3.1   954.0    0.00     274    54.0
  36    9:30   53.3    59    1.9    66      3.6   953.9    0.00     196    54.2
  36    9:40   53.5    58    1.6    64      2.8   954.0    0.00     222    54.5
  36    9:50   55.4    56    1.7    52      3.4   953.8    0.00     421    54.8
  36   10:00   56.4    54    2.1    25      3.9   953.6    0.00     348    55.0
  36   10:10   56.3    55    1.6    61      3.7   953.5    0.00     282    55.2
  36   10:20   58.2    52    0.5   281      1.7   953.5    0.00     272    55.5
  36   10:30   58.2    51    2.4   250      4.4   953.6    0.00     293    55.8
  36   10:40   58.5    51    2.3   232      4.6   953.5    0.00     415    56.1
  36   10:50   60.0    47    1.6   248      3.4   953.4    0.00     392    56.3
  36   11:00   60.9    45    0.8   218      2.1   953.3    0.00     364    56.7
  36   11:10   61.4    43    1.5   217      2.8   953.2    0.00     314    57.0
  36   11:20   61.0    43    1.6   203      3.5   952.9    0.00     290    57.3
  36   11:30   62.7    38    1.4   112      3.4   952.6    0.00     395    57.7
  36   11:40   62.9    39    1.4   222      3.4   952.4    0.00     377    58.0
  36   11:50   63.4    39    1.9   143      4.5   952.0    0.00     351    58.3
  36   12:00   63.5    38    2.0   208      3.7   951.7    0.00     311    58.6
  36   12:10   64.3    37    0.8   184      2.4   951.4    0.00     337    58.9
  36   12:20   65.0    36    1.1   127      3.5   951.2    0.00     308    59.2
  36   12:30   64.1    37    2.3   210      4.3   950.9    0.00     278    59.5
  36   12:40   63.6    38    3.0   230      6.1   950.7    0.00     312    59.8
  36   12:50   64.5    37    1.2   256      3.4   950.5    0.00     324    60.0
  36   13:00   64.2    36    1.9   281      4.4   950.3    0.00     333    60.3
  36   13:10   64.3    36    2.2   278      4.1   950.0    0.00     321    60.5
  36   13:20   65.0    35    1.2   241      2.9   949.8    0.00     336    60.7
  36   13:30   65.4    34    1.0   341      2.4   949.6    0.00     273    61.0
  36   13:40   65.2    33    1.3   256      2.9   949.4    0.00     227    61.2
  36   13:50   66.0    32    1.0   300      2.9   949.3    0.00     254    61.4
  36   14:00   65.6    33    1.1    10      5.1   949.0    0.00     217    61.6
  36   14:10   65.4    34    3.0   116      5.3   948.7    0.00     177    61.7
  36   14:20   65.6    33    1.7    62      4.6   948.4    0.00     183    61.8
  36   14:30   65.3    33    1.6    28      3.6   948.4    0.00     181    62.0
  36   14:40   65.7    32    0.7    85      2.2   948.2    0.00     169    62.0
  36   14:50   65.9    32    0.9   218      2.3   948.2    0.00     151    62.1
  36   15:00   66.0    32    0.7   163      1.5   948.1    0.00     127    62.1
  36   15:10   65.5    33    1.3   182      2.9   948.1    0.00     123    62.2
  36   15:20   65.4    33    2.3   180      4.4   948.1    0.00     109    62.2
  36   15:30   65.1    33    2.7   214      4.8   948.0    0.00     130    62.2
  36   15:40   65.1    33    1.5   205      3.6   948.1    0.00     109    62.2
  36   15:50   64.9    34    3.2   228      6.1   948.1    0.00      90    62.1
  36   16:00   64.2    35    3.1   222      6.3   948.1    0.00      57    62.1
  36   16:10   63.7    36    2.8   226      6.1   948.2    0.00      46    62.1
  36   16:20   63.4    37    3.2   222      6.0   948.3    0.00      34    62.0
  36   16:30   63.0    38    3.7   225      6.4   948.4    0.00      23    62.0
  36   16:40   62.7    38    3.2   231      5.8   948.4    0.00      19    61.9
  36   16:50   62.5    38    2.0   236      4.0   948.3    0.00      14    61.8
  36   17:00   62.2    38    2.0   229      3.7   948.4    0.00       7    61.7
  36   17:10   61.9    39    2.1   241      3.2   948.5    0.00       1    61.5
  36   17:20   61.6    40    2.4   240      3.7   948.6    0.00       0    61.4
  36   17:30   61.4    40    2.0   247      3.9   948.5    0.00       0    61.3
  36   17:40   61.1    41    0.8   253      2.3   948.4    0.00       0    61.1
  36   17:50   60.5    42    0.7   157      2.1   948.3    0.00       0    61.0
  36   18:00   59.1    46    3.5    85      4.2   948.2    0.00       0    60.9
  36   18:10   56.9    52    3.0    74      4.0   948.2    0.00       0    60.8
  36   18:20   56.8    52    1.1    60      2.5   948.2    0.00       0    60.6
  36   18:30   57.2    52    1.1   256      2.1   948.4    0.00       0    60.5
  36   18:40   57.7    51    1.0   332      2.3   948.4    0.00       0    60.4
  36   18:50   56.9    53    2.5    67      4.0   948.3    0.00       0    60.3
  36   19:00   55.7    57    3.3    47      5.0   948.2    0.00       0    60.2
  36   19:10   55.2    58    3.7    46      5.5   948.3    0.00       0    60.1
  36   19:20   55.6    58    2.9    60      4.7   948.4    0.00       0    60.0
  36   19:30   54.8    61    3.8   100      5.1   948.3    0.00       0    59.8
  36   19:40   54.5    62    3.7    58      5.0   948.2    0.00       1    59.7
  36   19:50   54.4    62    3.8    60      5.0   948.1    0.00       0    59.6
  36   20:00   54.2    62    3.7    40      5.6   948.0    0.00       1    59.5
  36   20:10   55.2    58    2.0   316      4.6   947.9    0.00       0    59.4
  36   20:20   56.5    54    2.5   336      4.7   947.8    0.00       0    59.3
  36   20:30   56.0    55    1.9   290      4.7   947.9    0.00       0    59.2
  36   20:40   55.8    56    1.5   227      3.2   947.9    0.00       0    59.1
  36   20:50   54.8    58    1.2   302      2.9   947.9    0.00       0    59.0
  36   21:00   54.6    58    2.5     1      4.7   947.8    0.00       0    58.9

Return to Mesquite, Nevada graphs page.


Western Regional Climate Center,wrcc@dri.edu